sensor_id;sensor_type;location;lat;lon;timestamp;P1;durP1;ratioP1;P2;durP2;ratioP2
2259;SDS011;333;48.800;9.530;2023-04-06T00:00:48;18.57;;;10.13;;
2259;SDS011;333;48.800;9.530;2023-04-06T00:03:17;10.90;;;8.80;;
2259;SDS011;333;48.800;9.530;2023-04-06T00:05:46;12.37;;;9.40;;
2259;SDS011;333;48.800;9.530;2023-04-06T00:08:13;12.27;;;8.43;;
2259;SDS011;333;48.800;9.530;2023-04-06T00:10:43;10.07;;;9.00;;
2259;SDS011;333;48.800;9.530;2023-04-06T00:13:10;9.67;;;8.73;;
2259;SDS011;333;48.800;9.530;2023-04-06T00:15:37;10.30;;;9.30;;
2259;SDS011;333;48.800;9.530;2023-04-06T00:18:04;12.10;;;10.90;;
2259;SDS011;333;48.800;9.530;2023-04-06T00:20:32;10.77;;;9.63;;
2259;SDS011;333;48.800;9.530;2023-04-06T00:23:00;11.97;;;9.90;;
2259;SDS011;333;48.800;9.530;2023-04-06T00:25:27;9.57;;;8.67;;
2259;SDS011;333;48.800;9.530;2023-04-06T00:27:54;13.10;;;10.27;;
2259;SDS011;333;48.800;9.530;2023-04-06T00:30:21;9.90;;;9.07;;
2259;SDS011;333;48.800;9.530;2023-04-06T00:32:48;12.80;;;10.47;;
2259;SDS011;333;48.800;9.530;2023-04-06T00:35:15;10.73;;;9.63;;
2259;SDS011;333;48.800;9.530;2023-04-06T00:37:45;9.63;;;8.80;;
2259;SDS011;333;48.800;9.530;2023-04-06T00:40:13;11.00;;;9.70;;
2259;SDS011;333;48.800;9.530;2023-04-06T00:42:40;10.17;;;9.13;;
2259;SDS011;333;48.800;9.530;2023-04-06T00:45:08;10.33;;;9.33;;
2259;SDS011;333;48.800;9.530;2023-04-06T00:47:36;11.23;;;9.13;;
2259;SDS011;333;48.800;9.530;2023-04-06T00:50:03;10.67;;;9.57;;
2259;SDS011;333;48.800;9.530;2023-04-06T00:52:30;11.27;;;9.50;;
2259;SDS011;333;48.800;9.530;2023-04-06T00:54:59;11.40;;;9.93;;
2259;SDS011;333;48.800;9.530;2023-04-06T00:57:26;11.10;;;9.80;;
2259;SDS011;333;48.800;9.530;2023-04-06T00:59:53;10.00;;;8.97;;
2259;SDS011;333;48.800;9.530;2023-04-06T01:02:20;10.10;;;9.10;;
2259;SDS011;333;48.800;9.530;2023-04-06T01:04:47;11.37;;;9.33;;
2259;SDS011;333;48.800;9.530;2023-04-06T01:07:14;10.50;;;9.10;;
2259;SDS011;333;48.800;9.530;2023-04-06T01:09:41;12.87;;;9.33;;
2259;SDS011;333;48.800;9.530;2023-04-06T01:12:09;10.37;;;9.30;;
2259;SDS011;333;48.800;9.530;2023-04-06T01:14:36;10.40;;;9.37;;
2259;SDS011;333;48.800;9.530;2023-04-06T01:17:03;11.27;;;10.03;;
2259;SDS011;333;48.800;9.530;2023-04-06T01:19:31;11.70;;;10.47;;
2259;SDS011;333;48.800;9.530;2023-04-06T01:21:58;12.40;;;10.03;;
2259;SDS011;333;48.800;9.530;2023-04-06T01:24:26;11.90;;;9.97;;
2259;SDS011;333;48.800;9.530;2023-04-06T01:26:53;12.77;;;10.53;;
2259;SDS011;333;48.800;9.530;2023-04-06T01:29:21;12.50;;;9.33;;
2259;SDS011;333;48.800;9.530;2023-04-06T01:31:48;10.33;;;9.03;;
2259;SDS011;333;48.800;9.530;2023-04-06T01:34:15;10.97;;;9.87;;
2259;SDS011;333;48.800;9.530;2023-04-06T01:36:42;12.40;;;10.20;;
2259;SDS011;333;48.800;9.530;2023-04-06T01:39:09;10.67;;;9.27;;
2259;SDS011;333;48.800;9.530;2023-04-06T01:41:37;11.87;;;10.43;;
2259;SDS011;333;48.800;9.530;2023-04-06T01:44:04;11.03;;;9.27;;
2259;SDS011;333;48.800;9.530;2023-04-06T01:46:31;10.50;;;9.37;;
2259;SDS011;333;48.800;9.530;2023-04-06T01:48:58;12.10;;;10.93;;
2259;SDS011;333;48.800;9.530;2023-04-06T01:51:25;12.40;;;10.73;;
2259;SDS011;333;48.800;9.530;2023-04-06T01:53:52;12.47;;;9.90;;
2259;SDS011;333;48.800;9.530;2023-04-06T01:56:23;12.60;;;10.30;;
2259;SDS011;333;48.800;9.530;2023-04-06T01:58:51;10.60;;;9.23;;
2259;SDS011;333;48.800;9.530;2023-04-06T02:01:18;12.70;;;10.17;;
2259;SDS011;333;48.800;9.530;2023-04-06T02:03:45;11.63;;;9.83;;
2259;SDS011;333;48.800;9.530;2023-04-06T02:06:12;13.37;;;10.60;;
2259;SDS011;333;48.800;9.530;2023-04-06T02:08:39;11.00;;;9.70;;
2259;SDS011;333;48.800;9.530;2023-04-06T02:11:06;11.83;;;9.80;;
2259;SDS011;333;48.800;9.530;2023-04-06T02:13:33;13.40;;;10.60;;
2259;SDS011;333;48.800;9.530;2023-04-06T02:16:02;11.60;;;10.00;;
2259;SDS011;333;48.800;9.530;2023-04-06T02:18:29;11.30;;;10.17;;
2259;SDS011;333;48.800;9.530;2023-04-06T02:20:57;13.67;;;9.53;;
2259;SDS011;333;48.800;9.530;2023-04-06T02:23:23;13.23;;;9.40;;
2259;SDS011;333;48.800;9.530;2023-04-06T02:25:51;13.63;;;11.07;;
2259;SDS011;333;48.800;9.530;2023-04-06T02:28:18;11.27;;;9.73;;
2259;SDS011;333;48.800;9.530;2023-04-06T02:30:45;10.70;;;9.57;;
2259;SDS011;333;48.800;9.530;2023-04-06T02:33:13;17.23;;;11.73;;
2259;SDS011;333;48.800;9.530;2023-04-06T02:35:40;14.93;;;9.90;;
2259;SDS011;333;48.800;9.530;2023-04-06T02:38:07;11.20;;;10.10;;
2259;SDS011;333;48.800;9.530;2023-04-06T02:40:34;13.13;;;10.43;;
2259;SDS011;333;48.800;9.530;2023-04-06T02:43:01;11.23;;;9.77;;
2259;SDS011;333;48.800;9.530;2023-04-06T02:45:28;13.67;;;10.87;;
2259;SDS011;333;48.800;9.530;2023-04-06T02:47:55;13.43;;;10.70;;
2259;SDS011;333;48.800;9.530;2023-04-06T02:50:23;12.50;;;10.00;;
2259;SDS011;333;48.800;9.530;2023-04-06T02:52:52;11.93;;;10.70;;
2259;SDS011;333;48.800;9.530;2023-04-06T02:55:19;11.43;;;9.73;;
2259;SDS011;333;48.800;9.530;2023-04-06T02:57:46;14.80;;;11.20;;
2259;SDS011;333;48.800;9.530;2023-04-06T03:00:13;14.83;;;9.73;;
2259;SDS011;333;48.800;9.530;2023-04-06T03:02:41;17.00;;;10.77;;
2259;SDS011;333;48.800;9.530;2023-04-06T03:05:08;11.90;;;10.60;;
2259;SDS011;333;48.800;9.530;2023-04-06T03:07:36;12.60;;;11.30;;
2259;SDS011;333;48.800;9.530;2023-04-06T03:10:03;10.83;;;9.90;;
2259;SDS011;333;48.800;9.530;2023-04-06T03:12:31;13.13;;;11.27;;
2259;SDS011;333;48.800;9.530;2023-04-06T03:14:58;11.50;;;9.50;;
2259;SDS011;333;48.800;9.530;2023-04-06T03:17:25;16.83;;;10.10;;
2259;SDS011;333;48.800;9.530;2023-04-06T03:19:52;14.03;;;10.40;;
2259;SDS011;333;48.800;9.530;2023-04-06T03:22:19;12.00;;;10.90;;
2259;SDS011;333;48.800;9.530;2023-04-06T03:24:48;13.90;;;11.03;;
2259;SDS011;333;48.800;9.530;2023-04-06T03:27:15;13.90;;;12.03;;
2259;SDS011;333;48.800;9.530;2023-04-06T03:29:42;14.10;;;11.63;;
2259;SDS011;333;48.800;9.530;2023-04-06T03:32:09;16.20;;;12.23;;
2259;SDS011;333;48.800;9.530;2023-04-06T03:34:36;13.60;;;10.87;;
2259;SDS011;333;48.800;9.530;2023-04-06T03:37:03;12.67;;;11.00;;
2259;SDS011;333;48.800;9.530;2023-04-06T03:39:30;16.50;;;10.03;;
2259;SDS011;333;48.800;9.530;2023-04-06T03:41:58;12.77;;;11.17;;
2259;SDS011;333;48.800;9.530;2023-04-06T03:44:25;12.83;;;10.47;;
2259;SDS011;333;48.800;9.530;2023-04-06T03:46:52;14.23;;;11.07;;
2259;SDS011;333;48.800;9.530;2023-04-06T03:49:19;16.87;;;11.97;;
2259;SDS011;333;48.800;9.530;2023-04-06T03:51:46;12.47;;;10.73;;
2259;SDS011;333;48.800;9.530;2023-04-06T03:54:13;13.87;;;11.17;;
2259;SDS011;333;48.800;9.530;2023-04-06T03:56:40;15.03;;;12.87;;
2259;SDS011;333;48.800;9.530;2023-04-06T03:59:08;19.53;;;11.73;;
2259;SDS011;333;48.800;9.530;2023-04-06T04:01:35;14.00;;;11.57;;
2259;SDS011;333;48.800;9.530;2023-04-06T04:04:04;16.37;;;12.43;;
2259;SDS011;333;48.800;9.530;2023-04-06T04:06:31;16.67;;;11.90;;
2259;SDS011;333;48.800;9.530;2023-04-06T04:08:58;17.60;;;12.77;;
2259;SDS011;333;48.800;9.530;2023-04-06T04:11:25;18.90;;;11.47;;
2259;SDS011;333;48.800;9.530;2023-04-06T04:13:52;17.33;;;12.23;;
2259;SDS011;333;48.800;9.530;2023-04-06T04:16:21;16.83;;;12.70;;
2259;SDS011;333;48.800;9.530;2023-04-06T04:18:48;15.03;;;12.17;;
2259;SDS011;333;48.800;9.530;2023-04-06T04:21:15;15.87;;;12.53;;
2259;SDS011;333;48.800;9.530;2023-04-06T04:23:42;22.80;;;11.90;;
2259;SDS011;333;48.800;9.530;2023-04-06T04:26:09;13.13;;;11.47;;
2259;SDS011;333;48.800;9.530;2023-04-06T04:28:36;15.63;;;12.20;;
2259;SDS011;333;48.800;9.530;2023-04-06T04:31:03;15.80;;;12.03;;
2259;SDS011;333;48.800;9.530;2023-04-06T04:33:31;15.30;;;11.57;;
2259;SDS011;333;48.800;9.530;2023-04-06T04:35:58;23.57;;;12.87;;
2259;SDS011;333;48.800;9.530;2023-04-06T04:38:25;11.53;;;10.33;;
2259;SDS011;333;48.800;9.530;2023-04-06T04:40:52;16.60;;;12.40;;
2259;SDS011;333;48.800;9.530;2023-04-06T04:43:19;17.33;;;11.17;;
2259;SDS011;333;48.800;9.530;2023-04-06T04:45:46;20.10;;;12.83;;
2259;SDS011;333;48.800;9.530;2023-04-06T04:48:13;12.67;;;11.40;;
2259;SDS011;333;48.800;9.530;2023-04-06T04:50:41;14.97;;;11.80;;
2259;SDS011;333;48.800;9.530;2023-04-06T04:53:08;19.23;;;11.70;;
2259;SDS011;333;48.800;9.530;2023-04-06T04:55:35;13.27;;;11.03;;
2259;SDS011;333;48.800;9.530;2023-04-06T04:58:02;12.57;;;10.80;;
2259;SDS011;333;48.800;9.530;2023-04-06T05:00:29;14.30;;;11.97;;
2259;SDS011;333;48.800;9.530;2023-04-06T05:02:57;17.03;;;13.63;;
2259;SDS011;333;48.800;9.530;2023-04-06T05:05:23;15.53;;;13.37;;
2259;SDS011;333;48.800;9.530;2023-04-06T05:07:52;18.03;;;12.60;;
2259;SDS011;333;48.800;9.530;2023-04-06T05:10:19;15.63;;;12.90;;
2259;SDS011;333;48.800;9.530;2023-04-06T05:12:46;16.20;;;12.50;;
2259;SDS011;333;48.800;9.530;2023-04-06T05:15:13;16.40;;;12.93;;
2259;SDS011;333;48.800;9.530;2023-04-06T05:17:40;14.03;;;12.30;;
2259;SDS011;333;48.800;9.530;2023-04-06T05:20:07;15.43;;;13.03;;
2259;SDS011;333;48.800;9.530;2023-04-06T05:22:35;17.63;;;12.87;;
2259;SDS011;333;48.800;9.530;2023-04-06T05:25:04;20.97;;;14.90;;
2259;SDS011;333;48.800;9.530;2023-04-06T05:27:31;20.37;;;14.83;;
2259;SDS011;333;48.800;9.530;2023-04-06T05:29:58;17.73;;;13.53;;
2259;SDS011;333;48.800;9.530;2023-04-06T05:32:25;20.03;;;14.50;;
2259;SDS011;333;48.800;9.530;2023-04-06T05:34:53;18.27;;;14.70;;
2259;SDS011;333;48.800;9.530;2023-04-06T05:37:21;20.97;;;15.57;;
2259;SDS011;333;48.800;9.530;2023-04-06T05:39:48;35.27;;;22.17;;
2259;SDS011;333;48.800;9.530;2023-04-06T05:42:16;24.37;;;16.87;;
2259;SDS011;333;48.800;9.530;2023-04-06T05:44:43;25.00;;;16.13;;
2259;SDS011;333;48.800;9.530;2023-04-06T05:47:10;15.20;;;12.63;;
2259;SDS011;333;48.800;9.530;2023-04-06T05:49:37;16.97;;;14.80;;
2259;SDS011;333;48.800;9.530;2023-04-06T05:52:04;15.37;;;12.90;;
2259;SDS011;333;48.800;9.530;2023-04-06T05:54:32;15.23;;;11.90;;
2259;SDS011;333;48.800;9.530;2023-04-06T05:56:59;16.23;;;12.40;;
2259;SDS011;333;48.800;9.530;2023-04-06T05:59:29;15.83;;;12.50;;
2259;SDS011;333;48.800;9.530;2023-04-06T06:01:56;17.70;;;13.60;;
2259;SDS011;333;48.800;9.530;2023-04-06T06:04:23;14.57;;;13.00;;
2259;SDS011;333;48.800;9.530;2023-04-06T06:06:51;14.10;;;12.63;;
2259;SDS011;333;48.800;9.530;2023-04-06T06:09:18;17.83;;;13.33;;
2259;SDS011;333;48.800;9.530;2023-04-06T06:11:45;16.20;;;14.20;;
2259;SDS011;333;48.800;9.530;2023-04-06T06:14:12;14.70;;;13.23;;
2259;SDS011;333;48.800;9.530;2023-04-06T06:16:40;16.53;;;12.13;;
2259;SDS011;333;48.800;9.530;2023-04-06T06:19:07;12.80;;;11.33;;
2259;SDS011;333;48.800;9.530;2023-04-06T06:21:34;13.17;;;11.77;;
2259;SDS011;333;48.800;9.530;2023-04-06T06:24:01;15.13;;;12.37;;
2259;SDS011;333;48.800;9.530;2023-04-06T06:26:28;16.67;;;13.30;;
2259;SDS011;333;48.800;9.530;2023-04-06T06:28:55;15.53;;;13.43;;
2259;SDS011;333;48.800;9.530;2023-04-06T06:31:22;14.00;;;12.40;;
2259;SDS011;333;48.800;9.530;2023-04-06T06:33:51;18.70;;;12.37;;
2259;SDS011;333;48.800;9.530;2023-04-06T06:36:18;13.63;;;11.00;;
2259;SDS011;333;48.800;9.530;2023-04-06T06:38:45;15.27;;;12.67;;
2259;SDS011;333;48.800;9.530;2023-04-06T06:41:12;14.20;;;10.90;;
2259;SDS011;333;48.800;9.530;2023-04-06T06:43:39;16.07;;;13.20;;
2259;SDS011;333;48.800;9.530;2023-04-06T06:46:06;13.87;;;11.53;;
2259;SDS011;333;48.800;9.530;2023-04-06T06:48:33;13.83;;;12.30;;
2259;SDS011;333;48.800;9.530;2023-04-06T06:51:01;14.37;;;11.90;;
2259;SDS011;333;48.800;9.530;2023-04-06T06:53:29;13.33;;;11.93;;
2259;SDS011;333;48.800;9.530;2023-04-06T06:55:56;13.33;;;12.03;;
2259;SDS011;333;48.800;9.530;2023-04-06T06:58:23;14.47;;;11.90;;
2259;SDS011;333;48.800;9.530;2023-04-06T07:00:50;13.17;;;11.83;;
2259;SDS011;333;48.800;9.530;2023-04-06T07:03:17;15.23;;;12.87;;
2259;SDS011;333;48.800;9.530;2023-04-06T07:05:47;15.40;;;12.70;;
2259;SDS011;333;48.800;9.530;2023-04-06T07:08:19;13.10;;;11.63;;
2259;SDS011;333;48.800;9.530;2023-04-06T07:10:46;14.33;;;12.13;;
2259;SDS011;333;48.800;9.530;2023-04-06T07:13:13;14.63;;;10.77;;
2259;SDS011;333;48.800;9.530;2023-04-06T07:15:44;19.50;;;12.10;;
2259;SDS011;333;48.800;9.530;2023-04-06T07:18:11;14.13;;;12.27;;
2259;SDS011;333;48.800;9.530;2023-04-06T07:20:38;17.63;;;13.30;;
2259;SDS011;333;48.800;9.530;2023-04-06T07:23:05;12.80;;;11.30;;
2259;SDS011;333;48.800;9.530;2023-04-06T07:25:33;18.00;;;12.20;;
2259;SDS011;333;48.800;9.530;2023-04-06T07:28:01;13.53;;;11.40;;
2259;SDS011;333;48.800;9.530;2023-04-06T07:30:28;13.00;;;11.70;;
2259;SDS011;333;48.800;9.530;2023-04-06T07:32:55;11.67;;;10.67;;
2259;SDS011;333;48.800;9.530;2023-04-06T07:35:24;16.90;;;11.60;;
2259;SDS011;333;48.800;9.530;2023-04-06T07:37:52;16.10;;;11.90;;
2259;SDS011;333;48.800;9.530;2023-04-06T07:40:19;13.27;;;11.87;;
2259;SDS011;333;48.800;9.530;2023-04-06T07:42:47;14.57;;;12.00;;
2259;SDS011;333;48.800;9.530;2023-04-06T07:45:15;12.17;;;10.90;;
2259;SDS011;333;48.800;9.530;2023-04-06T07:47:42;12.60;;;11.10;;
2259;SDS011;333;48.800;9.530;2023-04-06T07:50:09;15.60;;;11.80;;
2259;SDS011;333;48.800;9.530;2023-04-06T07:52:37;14.00;;;11.30;;
2259;SDS011;333;48.800;9.530;2023-04-06T07:55:04;11.80;;;10.60;;
2259;SDS011;333;48.800;9.530;2023-04-06T07:57:32;13.93;;;11.10;;
2259;SDS011;333;48.800;9.530;2023-04-06T08:00:00;14.10;;;11.40;;
2259;SDS011;333;48.800;9.530;2023-04-06T08:02:28;11.60;;;10.43;;
2259;SDS011;333;48.800;9.530;2023-04-06T08:04:55;12.77;;;11.47;;
2259;SDS011;333;48.800;9.530;2023-04-06T08:07:22;13.37;;;11.77;;
2259;SDS011;333;48.800;9.530;2023-04-06T08:09:49;11.90;;;10.70;;
2259;SDS011;333;48.800;9.530;2023-04-06T08:12:17;13.97;;;11.47;;
2259;SDS011;333;48.800;9.530;2023-04-06T08:14:44;16.37;;;12.20;;
2259;SDS011;333;48.800;9.530;2023-04-06T08:17:12;12.67;;;11.10;;
2259;SDS011;333;48.800;9.530;2023-04-06T08:19:41;12.70;;;11.40;;
2259;SDS011;333;48.800;9.530;2023-04-06T08:22:08;12.37;;;11.17;;
2259;SDS011;333;48.800;9.530;2023-04-06T08:24:35;11.97;;;10.33;;
2259;SDS011;333;48.800;9.530;2023-04-06T08:27:02;14.90;;;10.47;;
2259;SDS011;333;48.800;9.530;2023-04-06T08:29:29;13.27;;;11.83;;
2259;SDS011;333;48.800;9.530;2023-04-06T08:31:56;12.60;;;10.83;;
2259;SDS011;333;48.800;9.530;2023-04-06T08:34:24;13.87;;;12.47;;
2259;SDS011;333;48.800;9.530;2023-04-06T08:36:51;12.83;;;11.50;;
2259;SDS011;333;48.800;9.530;2023-04-06T08:39:18;13.83;;;11.67;;
2259;SDS011;333;48.800;9.530;2023-04-06T08:41:50;11.77;;;10.50;;
2259;SDS011;333;48.800;9.530;2023-04-06T08:44:18;14.60;;;10.97;;
2259;SDS011;333;48.800;9.530;2023-04-06T08:46:45;12.10;;;10.93;;
2259;SDS011;333;48.800;9.530;2023-04-06T08:49:13;11.77;;;10.43;;
2259;SDS011;333;48.800;9.530;2023-04-06T08:51:43;12.30;;;11.00;;
2259;SDS011;333;48.800;9.530;2023-04-06T08:54:10;12.90;;;11.60;;
2259;SDS011;333;48.800;9.530;2023-04-06T08:56:38;13.57;;;10.17;;
2259;SDS011;333;48.800;9.530;2023-04-06T08:59:05;13.57;;;12.17;;
2259;SDS011;333;48.800;9.530;2023-04-06T09:01:33;13.20;;;11.30;;
2259;SDS011;333;48.800;9.530;2023-04-06T09:04:06;12.40;;;10.63;;
2259;SDS011;333;48.800;9.530;2023-04-06T09:06:35;12.03;;;10.70;;
2259;SDS011;333;48.800;9.530;2023-04-06T09:09:04;11.57;;;10.40;;
2259;SDS011;333;48.800;9.530;2023-04-06T09:11:41;11.77;;;10.67;;
2259;SDS011;333;48.800;9.530;2023-04-06T09:14:11;11.10;;;10.00;;
2259;SDS011;333;48.800;9.530;2023-04-06T09:16:39;13.53;;;10.83;;
2259;SDS011;333;48.800;9.530;2023-04-06T09:19:07;12.23;;;10.90;;
2259;SDS011;333;48.800;9.530;2023-04-06T09:21:35;11.23;;;10.03;;
2259;SDS011;333;48.800;9.530;2023-04-06T09:24:03;11.70;;;10.13;;
2259;SDS011;333;48.800;9.530;2023-04-06T09:26:32;11.70;;;9.87;;
2259;SDS011;333;48.800;9.530;2023-04-06T09:29:10;11.13;;;9.93;;
2259;SDS011;333;48.800;9.530;2023-04-06T09:31:47;11.40;;;10.10;;
2259;SDS011;333;48.800;9.530;2023-04-06T09:34:20;15.57;;;9.90;;
2259;SDS011;333;48.800;9.530;2023-04-06T09:36:48;12.57;;;9.87;;
2259;SDS011;333;48.800;9.530;2023-04-06T09:39:19;13.57;;;10.63;;
2259;SDS011;333;48.800;9.530;2023-04-06T09:41:49;10.97;;;9.87;;
2259;SDS011;333;48.800;9.530;2023-04-06T09:44:17;10.43;;;9.33;;
2259;SDS011;333;48.800;9.530;2023-04-06T09:46:45;13.97;;;10.53;;
2259;SDS011;333;48.800;9.530;2023-04-06T09:49:13;11.57;;;9.40;;
2259;SDS011;333;48.800;9.530;2023-04-06T09:51:40;10.20;;;8.83;;
2259;SDS011;333;48.800;9.530;2023-04-06T09:54:10;12.63;;;9.27;;
2259;SDS011;333;48.800;9.530;2023-04-06T09:56:44;8.77;;;7.77;;
2259;SDS011;333;48.800;9.530;2023-04-06T09:59:13;9.73;;;7.70;;
2259;SDS011;333;48.800;9.530;2023-04-06T10:01:44;9.97;;;7.70;;
2259;SDS011;333;48.800;9.530;2023-04-06T10:04:18;10.80;;;9.40;;
2259;SDS011;333;48.800;9.530;2023-04-06T10:06:53;9.37;;;7.57;;
2259;SDS011;333;48.800;9.530;2023-04-06T10:09:25;8.83;;;7.60;;
2259;SDS011;333;48.800;9.530;2023-04-06T10:12:01;9.23;;;7.40;;
2259;SDS011;333;48.800;9.530;2023-04-06T10:14:29;8.27;;;7.47;;
2259;SDS011;333;48.800;9.530;2023-04-06T10:16:57;8.43;;;7.63;;
2259;SDS011;333;48.800;9.530;2023-04-06T10:19:25;8.60;;;7.83;;
2259;SDS011;333;48.800;9.530;2023-04-06T10:21:57;10.13;;;8.60;;
2259;SDS011;333;48.800;9.530;2023-04-06T10:24:26;9.77;;;8.87;;
2259;SDS011;333;48.800;9.530;2023-04-06T10:26:57;8.53;;;7.73;;
2259;SDS011;333;48.800;9.530;2023-04-06T10:29:26;9.47;;;8.10;;
2259;SDS011;333;48.800;9.530;2023-04-06T10:31:53;9.17;;;8.27;;
2259;SDS011;333;48.800;9.530;2023-04-06T10:34:21;9.70;;;8.10;;
2259;SDS011;333;48.800;9.530;2023-04-06T10:36:48;8.27;;;7.37;;
2259;SDS011;333;48.800;9.530;2023-04-06T10:39:15;8.93;;;8.03;;
2259;SDS011;333;48.800;9.530;2023-04-06T10:41:52;9.03;;;8.23;;
2259;SDS011;333;48.800;9.530;2023-04-06T10:44:20;8.00;;;7.27;;
2259;SDS011;333;48.800;9.530;2023-04-06T10:46:55;9.17;;;8.20;;
2259;SDS011;333;48.800;9.530;2023-04-06T10:49:25;9.10;;;7.53;;
2259;SDS011;333;48.800;9.530;2023-04-06T10:51:53;10.10;;;7.70;;
2259;SDS011;333;48.800;9.530;2023-04-06T10:54:23;9.60;;;8.60;;
2259;SDS011;333;48.800;9.530;2023-04-06T10:56:52;8.63;;;7.40;;
2259;SDS011;333;48.800;9.530;2023-04-06T10:59:19;9.20;;;8.30;;
2259;SDS011;333;48.800;9.530;2023-04-06T11:01:46;7.37;;;6.70;;
2259;SDS011;333;48.800;9.530;2023-04-06T11:04:17;7.57;;;6.77;;
2259;SDS011;333;48.800;9.530;2023-04-06T11:06:46;7.90;;;7.20;;
2259;SDS011;333;48.800;9.530;2023-04-06T11:09:22;10.27;;;7.47;;
2259;SDS011;333;48.800;9.530;2023-04-06T11:11:51;9.77;;;8.77;;
2259;SDS011;333;48.800;9.530;2023-04-06T11:14:19;7.80;;;7.00;;
2259;SDS011;333;48.800;9.530;2023-04-06T11:16:46;8.17;;;7.27;;
2259;SDS011;333;48.800;9.530;2023-04-06T11:19:15;8.63;;;7.83;;
2259;SDS011;333;48.800;9.530;2023-04-06T11:21:44;8.10;;;7.30;;
2259;SDS011;333;48.800;9.530;2023-04-06T11:24:13;8.17;;;7.20;;
2259;SDS011;333;48.800;9.530;2023-04-06T11:26:42;7.97;;;7.20;;
2259;SDS011;333;48.800;9.530;2023-04-06T11:29:11;8.07;;;7.37;;
2259;SDS011;333;48.800;9.530;2023-04-06T11:31:42;6.90;;;6.10;;
2259;SDS011;333;48.800;9.530;2023-04-06T11:34:11;6.63;;;6.10;;
2259;SDS011;333;48.800;9.530;2023-04-06T11:36:41;6.83;;;6.23;;
2259;SDS011;333;48.800;9.530;2023-04-06T11:39:09;6.93;;;6.23;;
2259;SDS011;333;48.800;9.530;2023-04-06T11:41:36;6.80;;;5.93;;
2259;SDS011;333;48.800;9.530;2023-04-06T11:44:03;5.97;;;5.43;;
2259;SDS011;333;48.800;9.530;2023-04-06T11:46:32;6.30;;;5.70;;
2259;SDS011;333;48.800;9.530;2023-04-06T11:49:02;7.10;;;6.40;;
2259;SDS011;333;48.800;9.530;2023-04-06T11:51:29;5.87;;;5.30;;
2259;SDS011;333;48.800;9.530;2023-04-06T11:53:58;5.67;;;5.17;;
2259;SDS011;333;48.800;9.530;2023-04-06T11:56:26;6.00;;;5.40;;
2259;SDS011;333;48.800;9.530;2023-04-06T11:58:54;7.43;;;6.60;;
2259;SDS011;333;48.800;9.530;2023-04-06T12:01:22;5.60;;;5.00;;
2259;SDS011;333;48.800;9.530;2023-04-06T12:03:49;6.57;;;5.97;;
2259;SDS011;333;48.800;9.530;2023-04-06T12:06:17;6.10;;;5.50;;
2259;SDS011;333;48.800;9.530;2023-04-06T12:08:44;5.33;;;4.90;;
2259;SDS011;333;48.800;9.530;2023-04-06T12:11:13;7.93;;;6.13;;
2259;SDS011;333;48.800;9.530;2023-04-06T12:13:40;7.97;;;4.90;;
2259;SDS011;333;48.800;9.530;2023-04-06T12:16:07;4.80;;;4.40;;
2259;SDS011;333;48.800;9.530;2023-04-06T12:18:34;6.47;;;5.10;;
2259;SDS011;333;48.800;9.530;2023-04-06T12:21:01;5.53;;;5.00;;
2259;SDS011;333;48.800;9.530;2023-04-06T12:23:28;6.50;;;5.20;;
2259;SDS011;333;48.800;9.530;2023-04-06T12:25:55;5.63;;;5.13;;
2259;SDS011;333;48.800;9.530;2023-04-06T12:28:23;4.93;;;4.50;;
2259;SDS011;333;48.800;9.530;2023-04-06T12:30:52;5.33;;;4.83;;
2259;SDS011;333;48.800;9.530;2023-04-06T12:33:20;5.63;;;5.13;;
2259;SDS011;333;48.800;9.530;2023-04-06T12:35:47;5.00;;;4.60;;
2259;SDS011;333;48.800;9.530;2023-04-06T12:38:15;4.90;;;4.50;;
2259;SDS011;333;48.800;9.530;2023-04-06T12:40:42;5.80;;;5.03;;
2259;SDS011;333;48.800;9.530;2023-04-06T12:43:09;5.70;;;5.13;;
2259;SDS011;333;48.800;9.530;2023-04-06T12:45:39;9.30;;;5.90;;
2259;SDS011;333;48.800;9.530;2023-04-06T12:48:06;5.10;;;4.60;;
2259;SDS011;333;48.800;9.530;2023-04-06T12:50:33;7.77;;;5.50;;
2259;SDS011;333;48.800;9.530;2023-04-06T12:53:01;5.97;;;5.27;;
2259;SDS011;333;48.800;9.530;2023-04-06T12:55:29;4.90;;;4.30;;
2259;SDS011;333;48.800;9.530;2023-04-06T12:57:59;6.07;;;5.00;;
2259;SDS011;333;48.800;9.530;2023-04-06T13:00:26;5.90;;;5.30;;
2259;SDS011;333;48.800;9.530;2023-04-06T13:02:55;6.53;;;5.50;;
2259;SDS011;333;48.800;9.530;2023-04-06T13:05:22;5.90;;;5.40;;
2259;SDS011;333;48.800;9.530;2023-04-06T13:07:49;5.83;;;5.17;;
2259;SDS011;333;48.800;9.530;2023-04-06T13:10:16;4.93;;;4.53;;
2259;SDS011;333;48.800;9.530;2023-04-06T13:12:43;6.43;;;5.60;;
2259;SDS011;333;48.800;9.530;2023-04-06T13:15:10;6.77;;;6.07;;
2259;SDS011;333;48.800;9.530;2023-04-06T13:17:37;6.03;;;5.43;;
2259;SDS011;333;48.800;9.530;2023-04-06T13:20:06;5.00;;;4.60;;
2259;SDS011;333;48.800;9.530;2023-04-06T13:22:34;5.40;;;4.90;;
2259;SDS011;333;48.800;9.530;2023-04-06T13:25:01;6.00;;;5.50;;
2259;SDS011;333;48.800;9.530;2023-04-06T13:27:29;4.87;;;4.47;;
2259;SDS011;333;48.800;9.530;2023-04-06T13:29:59;5.40;;;4.83;;
2259;SDS011;333;48.800;9.530;2023-04-06T13:32:26;5.60;;;5.00;;
2259;SDS011;333;48.800;9.530;2023-04-06T13:34:54;4.80;;;4.40;;
2259;SDS011;333;48.800;9.530;2023-04-06T13:37:22;5.33;;;4.83;;
2259;SDS011;333;48.800;9.530;2023-04-06T13:39:50;6.13;;;4.80;;
2259;SDS011;333;48.800;9.530;2023-04-06T13:42:17;4.87;;;4.47;;
2259;SDS011;333;48.800;9.530;2023-04-06T13:44:44;6.43;;;5.83;;
2259;SDS011;333;48.800;9.530;2023-04-06T13:47:12;5.10;;;4.60;;
2259;SDS011;333;48.800;9.530;2023-04-06T13:49:40;5.60;;;4.90;;
2259;SDS011;333;48.800;9.530;2023-04-06T13:52:07;5.73;;;5.13;;
2259;SDS011;333;48.800;9.530;2023-04-06T13:54:36;8.80;;;6.00;;
2259;SDS011;333;48.800;9.530;2023-04-06T13:57:03;5.83;;;5.30;;
2259;SDS011;333;48.800;9.530;2023-04-06T13:59:32;7.10;;;6.40;;
2259;SDS011;333;48.800;9.530;2023-04-06T14:01:59;9.80;;;6.87;;
2259;SDS011;333;48.800;9.530;2023-04-06T14:04:26;5.87;;;5.17;;
2259;SDS011;333;48.800;9.530;2023-04-06T14:06:53;6.70;;;6.10;;
2259;SDS011;333;48.800;9.530;2023-04-06T14:09:20;6.30;;;5.57;;
2259;SDS011;333;48.800;9.530;2023-04-06T14:11:49;5.73;;;5.20;;
2259;SDS011;333;48.800;9.530;2023-04-06T14:14:16;7.93;;;6.33;;
2259;SDS011;333;48.800;9.530;2023-04-06T14:16:44;7.07;;;6.23;;
2259;SDS011;333;48.800;9.530;2023-04-06T14:19:11;5.87;;;5.33;;
2259;SDS011;333;48.800;9.530;2023-04-06T14:21:39;5.70;;;5.20;;
2259;SDS011;333;48.800;9.530;2023-04-06T14:24:06;5.70;;;5.20;;
2259;SDS011;333;48.800;9.530;2023-04-06T14:26:34;6.03;;;5.43;;
2259;SDS011;333;48.800;9.530;2023-04-06T14:29:03;6.50;;;5.90;;
2259;SDS011;333;48.800;9.530;2023-04-06T14:31:31;5.80;;;5.20;;
2259;SDS011;333;48.800;9.530;2023-04-06T14:34:00;5.50;;;5.00;;
2259;SDS011;333;48.800;9.530;2023-04-06T14:36:27;9.33;;;5.70;;
2259;SDS011;333;48.800;9.530;2023-04-06T14:38:56;5.23;;;4.73;;
2259;SDS011;333;48.800;9.530;2023-04-06T14:41:24;5.97;;;5.30;;
2259;SDS011;333;48.800;9.530;2023-04-06T14:43:51;4.97;;;4.57;;
2259;SDS011;333;48.800;9.530;2023-04-06T14:46:19;4.77;;;4.27;;
2259;SDS011;333;48.800;9.530;2023-04-06T14:48:46;6.10;;;5.50;;
2259;SDS011;333;48.800;9.530;2023-04-06T14:51:14;4.93;;;4.43;;
2259;SDS011;333;48.800;9.530;2023-04-06T14:53:41;5.60;;;4.63;;
2259;SDS011;333;48.800;9.530;2023-04-06T14:56:09;5.40;;;4.90;;
2259;SDS011;333;48.800;9.530;2023-04-06T14:58:36;5.20;;;4.80;;
2259;SDS011;333;48.800;9.530;2023-04-06T15:01:03;4.90;;;4.57;;
2259;SDS011;333;48.800;9.530;2023-04-06T15:03:32;6.53;;;5.90;;
2259;SDS011;333;48.800;9.530;2023-04-06T15:05:59;6.43;;;4.83;;
2259;SDS011;333;48.800;9.530;2023-04-06T15:08:26;6.83;;;6.13;;
2259;SDS011;333;48.800;9.530;2023-04-06T15:10:53;7.80;;;6.77;;
2259;SDS011;333;48.800;9.530;2023-04-06T15:13:21;7.13;;;6.43;;
2259;SDS011;333;48.800;9.530;2023-04-06T15:15:49;6.47;;;5.87;;